sensor_id;sensor_type;location;lat;lon;timestamp;temperature;humidity
21648;DHT22;10985;54.182;7.890;2023-06-19T00:02:14;19.50;99.90
21648;DHT22;10985;54.182;7.890;2023-06-19T00:04:39;19.50;99.90
21648;DHT22;10985;54.182;7.890;2023-06-19T00:07:05;19.50;99.90
21648;DHT22;10985;54.182;7.890;2023-06-19T00:09:32;19.40;99.90
21648;DHT22;10985;54.182;7.890;2023-06-19T00:11:58;19.40;99.90
21648;DHT22;10985;54.182;7.890;2023-06-19T00:14:25;19.40;99.90
21648;DHT22;10985;54.182;7.890;2023-06-19T00:16:50;19.40;99.90
21648;DHT22;10985;54.182;7.890;2023-06-19T00:19:16;19.40;99.90
21648;DHT22;10985;54.182;7.890;2023-06-19T00:21:42;19.40;99.90
21648;DHT22;10985;54.182;7.890;2023-06-19T00:24:08;19.30;99.90
21648;DHT22;10985;54.182;7.890;2023-06-19T00:26:34;19.30;99.90
21648;DHT22;10985;54.182;7.890;2023-06-19T00:28:59;19.30;99.90
21648;DHT22;10985;54.182;7.890;2023-06-19T00:31:25;19.30;99.90
21648;DHT22;10985;54.182;7.890;2023-06-19T00:33:52;19.30;99.90
21648;DHT22;10985;54.182;7.890;2023-06-19T00:36:18;19.20;99.90
21648;DHT22;10985;54.182;7.890;2023-06-19T00:38:46;19.20;99.90
21648;DHT22;10985;54.182;7.890;2023-06-19T00:41:11;19.20;99.90
21648;DHT22;10985;54.182;7.890;2023-06-19T00:43:37;19.20;99.90
21648;DHT22;10985;54.182;7.890;2023-06-19T00:46:03;19.20;99.90
21648;DHT22;10985;54.182;7.890;2023-06-19T00:48:31;19.10;99.90
21648;DHT22;10985;54.182;7.890;2023-06-19T00:50:57;19.10;99.90
21648;DHT22;10985;54.182;7.890;2023-06-19T00:53:23;19.10;99.90
21648;DHT22;10985;54.182;7.890;2023-06-19T00:55:50;19.10;99.90
21648;DHT22;10985;54.182;7.890;2023-06-19T00:58:17;19.00;99.90
21648;DHT22;10985;54.182;7.890;2023-06-19T01:00:43;19.10;99.90
21648;DHT22;10985;54.182;7.890;2023-06-19T01:03:09;19.00;99.90
21648;DHT22;10985;54.182;7.890;2023-06-19T01:05:34;19.00;99.90
21648;DHT22;10985;54.182;7.890;2023-06-19T01:08:10;19.00;99.90
21648;DHT22;10985;54.182;7.890;2023-06-19T01:10:42;19.00;99.90
21648;DHT22;10985;54.182;7.890;2023-06-19T01:13:14;18.90;99.90
21648;DHT22;10985;54.182;7.890;2023-06-19T01:15:42;18.90;99.90
21648;DHT22;10985;54.182;7.890;2023-06-19T01:18:08;18.90;99.90
21648;DHT22;10985;54.182;7.890;2023-06-19T01:20:37;18.90;99.90
21648;DHT22;10985;54.182;7.890;2023-06-19T01:23:11;18.90;99.90
21648;DHT22;10985;54.182;7.890;2023-06-19T01:25:37;18.90;99.90
21648;DHT22;10985;54.182;7.890;2023-06-19T01:28:03;18.90;99.90
21648;DHT22;10985;54.182;7.890;2023-06-19T01:30:31;18.90;99.90
21648;DHT22;10985;54.182;7.890;2023-06-19T01:33:02;18.90;99.90
21648;DHT22;10985;54.182;7.890;2023-06-19T01:35:32;18.80;99.90
21648;DHT22;10985;54.182;7.890;2023-06-19T01:37:59;18.80;99.90
21648;DHT22;10985;54.182;7.890;2023-06-19T01:40:25;18.80;99.90
21648;DHT22;10985;54.182;7.890;2023-06-19T01:42:53;18.80;99.90
21648;DHT22;10985;54.182;7.890;2023-06-19T01:45:20;18.80;99.90
21648;DHT22;10985;54.182;7.890;2023-06-19T01:47:45;18.80;99.90
21648;DHT22;10985;54.182;7.890;2023-06-19T01:50:11;18.80;99.90
21648;DHT22;10985;54.182;7.890;2023-06-19T01:52:38;18.70;99.90
21648;DHT22;10985;54.182;7.890;2023-06-19T01:55:04;18.80;99.90
21648;DHT22;10985;54.182;7.890;2023-06-19T01:57:30;18.70;99.90
21648;DHT22;10985;54.182;7.890;2023-06-19T01:59:56;18.70;99.90
21648;DHT22;10985;54.182;7.890;2023-06-19T02:02:21;18.70;99.90
21648;DHT22;10985;54.182;7.890;2023-06-19T02:04:47;18.70;99.90
21648;DHT22;10985;54.182;7.890;2023-06-19T02:07:12;18.70;99.90
21648;DHT22;10985;54.182;7.890;2023-06-19T02:09:38;18.70;99.90
21648;DHT22;10985;54.182;7.890;2023-06-19T02:12:05;18.70;99.90
21648;DHT22;10985;54.182;7.890;2023-06-19T02:14:30;18.70;99.90
21648;DHT22;10985;54.182;7.890;2023-06-19T02:16:56;18.70;99.90
21648;DHT22;10985;54.182;7.890;2023-06-19T02:19:21;18.60;99.90
21648;DHT22;10985;54.182;7.890;2023-06-19T02:21:47;18.70;99.90
21648;DHT22;10985;54.182;7.890;2023-06-19T02:24:12;18.60;99.90
21648;DHT22;10985;54.182;7.890;2023-06-19T02:26:38;18.70;99.90
21648;DHT22;10985;54.182;7.890;2023-06-19T02:29:03;18.70;99.90
21648;DHT22;10985;54.182;7.890;2023-06-19T02:31:28;18.60;99.90
21648;DHT22;10985;54.182;7.890;2023-06-19T02:33:54;18.60;99.90
21648;DHT22;10985;54.182;7.890;2023-06-19T02:36:19;18.60;99.90
21648;DHT22;10985;54.182;7.890;2023-06-19T02:38:49;18.60;99.90
21648;DHT22;10985;54.182;7.890;2023-06-19T02:41:15;18.60;99.90
21648;DHT22;10985;54.182;7.890;2023-06-19T02:43:42;18.60;99.90
21648;DHT22;10985;54.182;7.890;2023-06-19T02:46:08;18.50;99.90
21648;DHT22;10985;54.182;7.890;2023-06-19T02:48:34;18.50;99.90
21648;DHT22;10985;54.182;7.890;2023-06-19T02:50:59;18.60;99.90
21648;DHT22;10985;54.182;7.890;2023-06-19T02:53:25;18.50;99.90
21648;DHT22;10985;54.182;7.890;2023-06-19T02:55:50;18.50;99.90
21648;DHT22;10985;54.182;7.890;2023-06-19T02:58:16;18.50;99.90
21648;DHT22;10985;54.182;7.890;2023-06-19T03:00:41;18.50;99.90
21648;DHT22;10985;54.182;7.890;2023-06-19T03:03:07;18.50;99.90
21648;DHT22;10985;54.182;7.890;2023-06-19T03:05:33;18.50;99.90
21648;DHT22;10985;54.182;7.890;2023-06-19T03:07:58;18.50;99.90
21648;DHT22;10985;54.182;7.890;2023-06-19T03:10:24;18.50;99.90
21648;DHT22;10985;54.182;7.890;2023-06-19T03:12:49;18.50;99.90
21648;DHT22;10985;54.182;7.890;2023-06-19T03:15:15;18.50;99.90
21648;DHT22;10985;54.182;7.890;2023-06-19T03:17:40;18.50;99.90
21648;DHT22;10985;54.182;7.890;2023-06-19T03:20:06;18.50;99.90
21648;DHT22;10985;54.182;7.890;2023-06-19T03:22:34;18.50;99.90
21648;DHT22;10985;54.182;7.890;2023-06-19T03:25:00;18.50;99.90
21648;DHT22;10985;54.182;7.890;2023-06-19T03:27:25;18.50;99.90
21648;DHT22;10985;54.182;7.890;2023-06-19T03:29:53;18.50;99.90
21648;DHT22;10985;54.182;7.890;2023-06-19T03:32:18;18.50;99.90
21648;DHT22;10985;54.182;7.890;2023-06-19T03:34:45;18.50;99.90
21648;DHT22;10985;54.182;7.890;2023-06-19T03:37:11;18.50;99.90
21648;DHT22;10985;54.182;7.890;2023-06-19T03:39:37;18.50;99.90
21648;DHT22;10985;54.182;7.890;2023-06-19T03:42:03;18.50;99.90
21648;DHT22;10985;54.182;7.890;2023-06-19T03:44:29;18.50;99.90
21648;DHT22;10985;54.182;7.890;2023-06-19T03:46:54;18.50;99.90
21648;DHT22;10985;54.182;7.890;2023-06-19T03:49:20;18.60;99.90
21648;DHT22;10985;54.182;7.890;2023-06-19T03:51:45;18.60;99.90
21648;DHT22;10985;54.182;7.890;2023-06-19T03:54:11;18.60;99.90
21648;DHT22;10985;54.182;7.890;2023-06-19T03:56:37;18.60;99.90
21648;DHT22;10985;54.182;7.890;2023-06-19T03:59:02;18.60;99.90
21648;DHT22;10985;54.182;7.890;2023-06-19T04:01:28;18.60;99.90
21648;DHT22;10985;54.182;7.890;2023-06-19T04:03:54;18.60;99.90
21648;DHT22;10985;54.182;7.890;2023-06-19T04:06:19;18.60;99.90
21648;DHT22;10985;54.182;7.890;2023-06-19T04:08:45;18.50;99.90
21648;DHT22;10985;54.182;7.890;2023-06-19T04:11:10;18.50;99.90
21648;DHT22;10985;54.182;7.890;2023-06-19T04:13:36;18.50;99.90
21648;DHT22;10985;54.182;7.890;2023-06-19T04:16:01;18.50;99.90
21648;DHT22;10985;54.182;7.890;2023-06-19T04:18:27;18.50;99.90
21648;DHT22;10985;54.182;7.890;2023-06-19T04:20:53;18.40;99.90
21648;DHT22;10985;54.182;7.890;2023-06-19T04:23:19;18.40;99.90
21648;DHT22;10985;54.182;7.890;2023-06-19T04:25:44;18.40;99.90
21648;DHT22;10985;54.182;7.890;2023-06-19T04:28:10;18.40;99.90
21648;DHT22;10985;54.182;7.890;2023-06-19T04:30:35;18.40;99.90
21648;DHT22;10985;54.182;7.890;2023-06-19T04:33:01;18.40;99.90
21648;DHT22;10985;54.182;7.890;2023-06-19T04:35:26;18.40;99.90
21648;DHT22;10985;54.182;7.890;2023-06-19T04:37:53;18.40;99.90
21648;DHT22;10985;54.182;7.890;2023-06-19T04:40:18;18.40;99.90
21648;DHT22;10985;54.182;7.890;2023-06-19T04:42:44;18.40;99.90
21648;DHT22;10985;54.182;7.890;2023-06-19T04:45:10;18.40;99.90
21648;DHT22;10985;54.182;7.890;2023-06-19T04:47:35;18.40;99.90
21648;DHT22;10985;54.182;7.890;2023-06-19T04:50:01;18.40;99.90
21648;DHT22;10985;54.182;7.890;2023-06-19T04:52:27;18.40;99.90
21648;DHT22;10985;54.182;7.890;2023-06-19T04:54:52;18.40;99.90
21648;DHT22;10985;54.182;7.890;2023-06-19T04:57:18;18.40;99.90
21648;DHT22;10985;54.182;7.890;2023-06-19T04:59:43;18.40;99.90
21648;DHT22;10985;54.182;7.890;2023-06-19T05:02:10;18.40;99.90
21648;DHT22;10985;54.182;7.890;2023-06-19T05:04:35;18.40;99.90
21648;DHT22;10985;54.182;7.890;2023-06-19T05:07:01;18.40;99.90
21648;DHT22;10985;54.182;7.890;2023-06-19T05:09:27;18.40;99.90
21648;DHT22;10985;54.182;7.890;2023-06-19T05:11:52;18.40;99.90
21648;DHT22;10985;54.182;7.890;2023-06-19T05:14:18;18.40;99.90
21648;DHT22;10985;54.182;7.890;2023-06-19T05:16:43;18.40;99.90
21648;DHT22;10985;54.182;7.890;2023-06-19T05:19:09;18.30;99.90
21648;DHT22;10985;54.182;7.890;2023-06-19T05:21:35;18.30;99.90
21648;DHT22;10985;54.182;7.890;2023-06-19T05:24:01;18.40;99.90
21648;DHT22;10985;54.182;7.890;2023-06-19T05:26:26;18.40;99.90
21648;DHT22;10985;54.182;7.890;2023-06-19T05:28:52;18.40;99.90
21648;DHT22;10985;54.182;7.890;2023-06-19T05:31:17;18.40;99.90
21648;DHT22;10985;54.182;7.890;2023-06-19T05:33:44;18.40;99.90
21648;DHT22;10985;54.182;7.890;2023-06-19T05:36:09;18.30;99.90
21648;DHT22;10985;54.182;7.890;2023-06-19T05:38:35;18.30;99.90
21648;DHT22;10985;54.182;7.890;2023-06-19T05:41:02;18.30;99.90
21648;DHT22;10985;54.182;7.890;2023-06-19T05:43:27;18.30;99.90
21648;DHT22;10985;54.182;7.890;2023-06-19T05:45:53;18.30;99.90
21648;DHT22;10985;54.182;7.890;2023-06-19T05:48:21;18.30;99.90
21648;DHT22;10985;54.182;7.890;2023-06-19T05:50:46;18.30;99.90
21648;DHT22;10985;54.182;7.890;2023-06-19T05:53:12;18.30;99.90
21648;DHT22;10985;54.182;7.890;2023-06-19T05:55:38;18.30;99.90
21648;DHT22;10985;54.182;7.890;2023-06-19T05:58:03;18.40;99.90
21648;DHT22;10985;54.182;7.890;2023-06-19T06:00:29;18.40;99.90
21648;DHT22;10985;54.182;7.890;2023-06-19T06:02:56;18.40;99.90
21648;DHT22;10985;54.182;7.890;2023-06-19T06:05:25;18.50;99.90
21648;DHT22;10985;54.182;7.890;2023-06-19T06:07:50;18.60;99.90
21648;DHT22;10985;54.182;7.890;2023-06-19T06:10:16;18.70;99.90
21648;DHT22;10985;54.182;7.890;2023-06-19T06:12:42;18.70;99.90
21648;DHT22;10985;54.182;7.890;2023-06-19T06:15:08;18.80;99.90
21648;DHT22;10985;54.182;7.890;2023-06-19T06:17:33;18.90;99.90
21648;DHT22;10985;54.182;7.890;2023-06-19T06:19:59;19.00;99.90
21648;DHT22;10985;54.182;7.890;2023-06-19T06:22:24;19.10;99.90
21648;DHT22;10985;54.182;7.890;2023-06-19T06:24:50;19.10;99.90
21648;DHT22;10985;54.182;7.890;2023-06-19T06:27:15;19.20;99.90
21648;DHT22;10985;54.182;7.890;2023-06-19T06:29:41;19.30;99.90
21648;DHT22;10985;54.182;7.890;2023-06-19T06:32:07;19.30;99.90
21648;DHT22;10985;54.182;7.890;2023-06-19T06:34:34;19.30;99.90
21648;DHT22;10985;54.182;7.890;2023-06-19T06:37:00;19.40;99.90
21648;DHT22;10985;54.182;7.890;2023-06-19T06:39:26;19.40;99.90
21648;DHT22;10985;54.182;7.890;2023-06-19T06:41:51;19.40;99.90
21648;DHT22;10985;54.182;7.890;2023-06-19T06:44:17;19.40;99.90
21648;DHT22;10985;54.182;7.890;2023-06-19T06:46:42;19.40;99.90
21648;DHT22;10985;54.182;7.890;2023-06-19T06:49:08;19.30;99.90
21648;DHT22;10985;54.182;7.890;2023-06-19T06:51:33;19.30;99.90
21648;DHT22;10985;54.182;7.890;2023-06-19T06:53:59;19.30;99.90
21648;DHT22;10985;54.182;7.890;2023-06-19T06:56:24;19.30;99.90
21648;DHT22;10985;54.182;7.890;2023-06-19T06:58:50;19.30;99.90
21648;DHT22;10985;54.182;7.890;2023-06-19T07:01:15;19.20;99.90
21648;DHT22;10985;54.182;7.890;2023-06-19T07:03:41;19.10;99.90
21648;DHT22;10985;54.182;7.890;2023-06-19T07:06:06;19.10;99.90
21648;DHT22;10985;54.182;7.890;2023-06-19T07:08:32;19.10;99.90
21648;DHT22;10985;54.182;7.890;2023-06-19T07:10:58;19.10;99.90
21648;DHT22;10985;54.182;7.890;2023-06-19T07:13:24;19.10;99.90
21648;DHT22;10985;54.182;7.890;2023-06-19T07:15:49;19.10;99.90
21648;DHT22;10985;54.182;7.890;2023-06-19T07:18:15;19.10;99.90
21648;DHT22;10985;54.182;7.890;2023-06-19T07:20:40;19.10;99.90
21648;DHT22;10985;54.182;7.890;2023-06-19T07:23:06;19.10;99.90
21648;DHT22;10985;54.182;7.890;2023-06-19T07:25:31;19.10;99.90
21648;DHT22;10985;54.182;7.890;2023-06-19T07:27:59;19.10;99.90
21648;DHT22;10985;54.182;7.890;2023-06-19T07:30:25;19.10;99.90
21648;DHT22;10985;54.182;7.890;2023-06-19T07:32:51;19.20;99.90
21648;DHT22;10985;54.182;7.890;2023-06-19T07:35:16;19.10;99.90
21648;DHT22;10985;54.182;7.890;2023-06-19T07:37:42;19.10;99.90
21648;DHT22;10985;54.182;7.890;2023-06-19T07:40:08;19.10;99.90
21648;DHT22;10985;54.182;7.890;2023-06-19T07:42:34;19.10;99.90
21648;DHT22;10985;54.182;7.890;2023-06-19T07:44:59;19.10;99.90
21648;DHT22;10985;54.182;7.890;2023-06-19T07:47:26;19.10;99.90
21648;DHT22;10985;54.182;7.890;2023-06-19T07:49:52;19.10;99.90
21648;DHT22;10985;54.182;7.890;2023-06-19T07:52:17;19.10;99.90
21648;DHT22;10985;54.182;7.890;2023-06-19T07:54:57;19.10;99.90
21648;DHT22;10985;54.182;7.890;2023-06-19T07:57:24;19.20;99.90
21648;DHT22;10985;54.182;7.890;2023-06-19T07:59:51;19.20;99.90
21648;DHT22;10985;54.182;7.890;2023-06-19T08:02:17;19.30;99.90
21648;DHT22;10985;54.182;7.890;2023-06-19T08:04:43;19.40;99.90
21648;DHT22;10985;54.182;7.890;2023-06-19T08:07:08;19.50;99.90
21648;DHT22;10985;54.182;7.890;2023-06-19T08:09:34;19.70;99.90
21648;DHT22;10985;54.182;7.890;2023-06-19T08:12:01;19.90;99.90
21648;DHT22;10985;54.182;7.890;2023-06-19T08:14:26;20.10;99.90
21648;DHT22;10985;54.182;7.890;2023-06-19T08:16:52;20.30;99.90
21648;DHT22;10985;54.182;7.890;2023-06-19T08:19:17;20.50;99.90
21648;DHT22;10985;54.182;7.890;2023-06-19T08:21:43;20.70;99.90
21648;DHT22;10985;54.182;7.890;2023-06-19T08:24:08;20.90;99.90
21648;DHT22;10985;54.182;7.890;2023-06-19T08:26:34;21.10;99.90
21648;DHT22;10985;54.182;7.890;2023-06-19T08:28:59;21.20;99.90
21648;DHT22;10985;54.182;7.890;2023-06-19T08:31:24;21.40;99.90
21648;DHT22;10985;54.182;7.890;2023-06-19T08:33:56;21.50;99.90
21648;DHT22;10985;54.182;7.890;2023-06-19T08:36:21;21.50;99.90
21648;DHT22;10985;54.182;7.890;2023-06-19T08:38:47;21.70;99.90
21648;DHT22;10985;54.182;7.890;2023-06-19T08:41:16;21.70;99.90
21648;DHT22;10985;54.182;7.890;2023-06-19T08:43:44;21.80;99.90
21648;DHT22;10985;54.182;7.890;2023-06-19T08:46:11;21.80;99.90
21648;DHT22;10985;54.182;7.890;2023-06-19T08:48:38;21.80;99.90
21648;DHT22;10985;54.182;7.890;2023-06-19T08:51:04;21.80;99.90
21648;DHT22;10985;54.182;7.890;2023-06-19T08:53:47;21.80;99.90
21648;DHT22;10985;54.182;7.890;2023-06-19T08:56:15;21.90;99.90
21648;DHT22;10985;54.182;7.890;2023-06-19T08:58:41;22.10;99.90
21648;DHT22;10985;54.182;7.890;2023-06-19T09:01:06;22.20;99.90
21648;DHT22;10985;54.182;7.890;2023-06-19T09:03:32;22.20;99.90
21648;DHT22;10985;54.182;7.890;2023-06-19T09:06:03;22.20;99.90
21648;DHT22;10985;54.182;7.890;2023-06-19T09:08:29;22.30;99.90
21648;DHT22;10985;54.182;7.890;2023-06-19T09:11:02;22.50;99.90
21648;DHT22;10985;54.182;7.890;2023-06-19T09:13:29;22.70;99.90
21648;DHT22;10985;54.182;7.890;2023-06-19T09:16:00;23.10;99.90
21648;DHT22;10985;54.182;7.890;2023-06-19T09:18:28;23.50;99.90
21648;DHT22;10985;54.182;7.890;2023-06-19T09:20:54;24.10;99.90
21648;DHT22;10985;54.182;7.890;2023-06-19T09:23:20;24.60;99.90
21648;DHT22;10985;54.182;7.890;2023-06-19T09:25:47;24.70;99.90
21648;DHT22;10985;54.182;7.890;2023-06-19T09:28:17;24.80;99.90
21648;DHT22;10985;54.182;7.890;2023-06-19T09:31:00;24.90;99.90
21648;DHT22;10985;54.182;7.890;2023-06-19T09:33:31;25.00;99.90
21648;DHT22;10985;54.182;7.890;2023-06-19T09:35:57;24.90;99.90
21648;DHT22;10985;54.182;7.890;2023-06-19T09:38:40;25.00;99.90
21648;DHT22;10985;54.182;7.890;2023-06-19T09:41:06;25.00;99.90
21648;DHT22;10985;54.182;7.890;2023-06-19T09:43:44;25.20;99.90
21648;DHT22;10985;54.182;7.890;2023-06-19T09:46:10;25.20;99.90
21648;DHT22;10985;54.182;7.890;2023-06-19T09:48:41;25.00;99.90
21648;DHT22;10985;54.182;7.890;2023-06-19T09:51:27;24.90;99.90
21648;DHT22;10985;54.182;7.890;2023-06-19T09:53:56;24.80;99.90
21648;DHT22;10985;54.182;7.890;2023-06-19T09:56:24;24.60;99.90
21648;DHT22;10985;54.182;7.890;2023-06-19T09:58:53;24.40;99.90
21648;DHT22;10985;54.182;7.890;2023-06-19T10:01:20;24.10;99.90
21648;DHT22;10985;54.182;7.890;2023-06-19T10:03:46;23.80;99.90
21648;DHT22;10985;54.182;7.890;2023-06-19T10:06:16;23.50;99.90
21648;DHT22;10985;54.182;7.890;2023-06-19T10:08:44;23.30;99.90
21648;DHT22;10985;54.182;7.890;2023-06-19T10:11:12;23.00;99.90
21648;DHT22;10985;54.182;7.890;2023-06-19T10:13:40;22.80;99.90
21648;DHT22;10985;54.182;7.890;2023-06-19T10:16:22;22.80;99.90
21648;DHT22;10985;54.182;7.890;2023-06-19T10:18:49;22.50;99.90
21648;DHT22;10985;54.182;7.890;2023-06-19T10:21:16;22.20;99.90
21648;DHT22;10985;54.182;7.890;2023-06-19T10:23:42;22.00;99.90
21648;DHT22;10985;54.182;7.890;2023-06-19T10:26:07;21.70;99.90
21648;DHT22;10985;54.182;7.890;2023-06-19T10:28:33;21.60;99.90
21648;DHT22;10985;54.182;7.890;2023-06-19T10:31:04;21.30;99.90
21648;DHT22;10985;54.182;7.890;2023-06-19T10:33:33;21.10;99.90
21648;DHT22;10985;54.182;7.890;2023-06-19T10:36:00;21.00;99.90
21648;DHT22;10985;54.182;7.890;2023-06-19T10:38:26;20.90;99.90
21648;DHT22;10985;54.182;7.890;2023-06-19T10:40:52;20.70;99.90
21648;DHT22;10985;54.182;7.890;2023-06-19T10:43:22;20.60;99.90
21648;DHT22;10985;54.182;7.890;2023-06-19T10:45:53;20.40;99.90
21648;DHT22;10985;54.182;7.890;2023-06-19T10:48:20;20.20;99.90
21648;DHT22;10985;54.182;7.890;2023-06-19T10:50:47;20.10;99.90
21648;DHT22;10985;54.182;7.890;2023-06-19T10:53:23;20.00;99.90
21648;DHT22;10985;54.182;7.890;2023-06-19T10:55:54;19.90;99.90
21648;DHT22;10985;54.182;7.890;2023-06-19T10:58:20;19.80;99.90
21648;DHT22;10985;54.182;7.890;2023-06-19T11:00:46;19.70;99.90
21648;DHT22;10985;54.182;7.890;2023-06-19T11:03:12;19.60;99.90
21648;DHT22;10985;54.182;7.890;2023-06-19T11:05:43;19.70;99.90
21648;DHT22;10985;54.182;7.890;2023-06-19T11:08:09;19.70;99.90
21648;DHT22;10985;54.182;7.890;2023-06-19T11:10:35;19.70;99.90
21648;DHT22;10985;54.182;7.890;2023-06-19T11:13:00;19.80;99.90
21648;DHT22;10985;54.182;7.890;2023-06-19T11:15:33;19.90;99.90
21648;DHT22;10985;54.182;7.890;2023-06-19T11:18:00;20.10;99.90
21648;DHT22;10985;54.182;7.890;2023-06-19T11:20:26;20.40;99.90
21648;DHT22;10985;54.182;7.890;2023-06-19T11:22:56;20.60;99.90
21648;DHT22;10985;54.182;7.890;2023-06-19T11:25:22;20.90;99.90
21648;DHT22;10985;54.182;7.890;2023-06-19T11:27:48;21.30;99.90
21648;DHT22;10985;54.182;7.890;2023-06-19T11:30:18;21.50;99.90
21648;DHT22;10985;54.182;7.890;2023-06-19T11:32:46;21.80;99.90
21648;DHT22;10985;54.182;7.890;2023-06-19T11:35:15;22.00;99.90
21648;DHT22;10985;54.182;7.890;2023-06-19T11:37:42;22.30;99.90
21648;DHT22;10985;54.182;7.890;2023-06-19T11:40:09;22.70;99.90
21648;DHT22;10985;54.182;7.890;2023-06-19T11:42:47;22.80;99.90
21648;DHT22;10985;54.182;7.890;2023-06-19T11:45:13;23.00;99.90
21648;DHT22;10985;54.182;7.890;2023-06-19T11:47:39;23.10;99.90
21648;DHT22;10985;54.182;7.890;2023-06-19T11:50:05;23.30;99.90
21648;DHT22;10985;54.182;7.890;2023-06-19T11:52:31;23.40;99.90
21648;DHT22;10985;54.182;7.890;2023-06-19T11:54:56;23.60;99.90
21648;DHT22;10985;54.182;7.890;2023-06-19T11:57:22;24.00;99.90
21648;DHT22;10985;54.182;7.890;2023-06-19T11:59:47;24.20;99.90
21648;DHT22;10985;54.182;7.890;2023-06-19T12:02:13;24.30;99.90
21648;DHT22;10985;54.182;7.890;2023-06-19T12:04:39;24.50;99.90
21648;DHT22;10985;54.182;7.890;2023-06-19T12:07:04;24.50;99.90
21648;DHT22;10985;54.182;7.890;2023-06-19T12:09:30;24.50;99.90
21648;DHT22;10985;54.182;7.890;2023-06-19T12:11:57;24.40;99.90
21648;DHT22;10985;54.182;7.890;2023-06-19T12:14:23;24.50;99.90
21648;DHT22;10985;54.182;7.890;2023-06-19T12:16:50;24.60;99.90
21648;DHT22;10985;54.182;7.890;2023-06-19T12:19:15;24.50;99.90
21648;DHT22;10985;54.182;7.890;2023-06-19T12:21:41;24.40;99.90
21648;DHT22;10985;54.182;7.890;2023-06-19T12:24:06;24.40;99.90
21648;DHT22;10985;54.182;7.890;2023-06-19T12:26:36;24.40;99.90
21648;DHT22;10985;54.182;7.890;2023-06-19T12:29:06;24.20;99.90
21648;DHT22;10985;54.182;7.890;2023-06-19T12:31:32;24.20;99.90
21648;DHT22;10985;54.182;7.890;2023-06-19T12:33:59;24.10;99.90
21648;DHT22;10985;54.182;7.890;2023-06-19T12:36:24;23.80;99.90
21648;DHT22;10985;54.182;7.890;2023-06-19T12:38:52;23.80;99.90
21648;DHT22;10985;54.182;7.890;2023-06-19T12:41:22;23.40;99.90
21648;DHT22;10985;54.182;7.890;2023-06-19T12:43:47;23.30;99.90
21648;DHT22;10985;54.182;7.890;2023-06-19T12:46:13;23.10;99.90
21648;DHT22;10985;54.182;7.890;2023-06-19T12:48:40;23.10;99.90
21648;DHT22;10985;54.182;7.890;2023-06-19T12:51:06;23.10;99.90
21648;DHT22;10985;54.182;7.890;2023-06-19T12:53:31;23.10;99.90
21648;DHT22;10985;54.182;7.890;2023-06-19T12:55:58;23.10;99.90
21648;DHT22;10985;54.182;7.890;2023-06-19T12:58:23;23.30;99.90
21648;DHT22;10985;54.182;7.890;2023-06-19T13:00:49;23.40;99.90
21648;DHT22;10985;54.182;7.890;2023-06-19T13:03:14;23.40;99.90
21648;DHT22;10985;54.182;7.890;2023-06-19T13:05:40;23.60;99.90
21648;DHT22;10985;54.182;7.890;2023-06-19T13:08:05;23.60;99.90
21648;DHT22;10985;54.182;7.890;2023-06-19T13:10:31;23.80;99.90
21648;DHT22;10985;54.182;7.890;2023-06-19T13:12:56;23.90;99.90
21648;DHT22;10985;54.182;7.890;2023-06-19T13:15:25;23.70;99.90
21648;DHT22;10985;54.182;7.890;2023-06-19T13:17:50;23.70;99.90
21648;DHT22;10985;54.182;7.890;2023-06-19T13:20:16;23.70;99.90
21648;DHT22;10985;54.182;7.890;2023-06-19T13:22:42;23.50;99.90
21648;DHT22;10985;54.182;7.890;2023-06-19T13:25:07;23.40;99.90
21648;DHT22;10985;54.182;7.890;2023-06-19T13:27:33;23.40;99.90
21648;DHT22;10985;54.182;7.890;2023-06-19T13:30:00;23.40;99.90
21648;DHT22;10985;54.182;7.890;2023-06-19T13:32:26;23.30;99.90
21648;DHT22;10985;54.182;7.890;2023-06-19T13:34:51;23.30;99.90
21648;DHT22;10985;54.182;7.890;2023-06-19T13:37:18;23.20;99.90
21648;DHT22;10985;54.182;7.890;2023-06-19T13:39:44;23.10;99.90
21648;DHT22;10985;54.182;7.890;2023-06-19T13:42:09;23.00;99.90
21648;DHT22;10985;54.182;7.890;2023-06-19T13:44:36;23.00;99.90
21648;DHT22;10985;54.182;7.890;2023-06-19T13:47:02;22.90;99.90
21648;DHT22;10985;54.182;7.890;2023-06-19T13:49:27;22.70;99.90
21648;DHT22;10985;54.182;7.890;2023-06-19T13:51:53;22.60;99.90
21648;DHT22;10985;54.182;7.890;2023-06-19T13:54:19;22.60;99.90
21648;DHT22;10985;54.182;7.890;2023-06-19T13:56:46;22.50;99.90
21648;DHT22;10985;54.182;7.890;2023-06-19T13:59:12;22.40;99.90
21648;DHT22;10985;54.182;7.890;2023-06-19T14:01:38;22.40;99.90
21648;DHT22;10985;54.182;7.890;2023-06-19T14:04:03;22.30;99.90
21648;DHT22;10985;54.182;7.890;2023-06-19T14:06:29;22.30;99.90
21648;DHT22;10985;54.182;7.890;2023-06-19T14:08:55;22.30;99.90
21648;DHT22;10985;54.182;7.890;2023-06-19T14:11:21;22.30;99.90
21648;DHT22;10985;54.182;7.890;2023-06-19T14:13:46;22.30;99.90
21648;DHT22;10985;54.182;7.890;2023-06-19T14:16:12;22.30;99.90
21648;DHT22;10985;54.182;7.890;2023-06-19T14:18:37;22.20;99.90
21648;DHT22;10985;54.182;7.890;2023-06-19T14:21:03;22.20;99.90
21648;DHT22;10985;54.182;7.890;2023-06-19T14:23:28;22.20;99.90
21648;DHT22;10985;54.182;7.890;2023-06-19T14:25:54;22.10;99.90
21648;DHT22;10985;54.182;7.890;2023-06-19T14:28:19;22.00;99.90
21648;DHT22;10985;54.182;7.890;2023-06-19T14:30:45;22.10;99.90
21648;DHT22;10985;54.182;7.890;2023-06-19T14:33:10;22.00;99.90
21648;DHT22;10985;54.182;7.890;2023-06-19T14:35:41;22.10;99.90
21648;DHT22;10985;54.182;7.890;2023-06-19T14:38:07;22.00;99.90
21648;DHT22;10985;54.182;7.890;2023-06-19T14:40:33;22.00;99.90
21648;DHT22;10985;54.182;7.890;2023-06-19T14:42:58;21.90;99.90
21648;DHT22;10985;54.182;7.890;2023-06-19T14:45:23;21.90;99.90
21648;DHT22;10985;54.182;7.890;2023-06-19T14:47:49;21.80;99.90
21648;DHT22;10985;54.182;7.890;2023-06-19T14:50:15;21.70;99.90
21648;DHT22;10985;54.182;7.890;2023-06-19T14:52:40;21.70;99.90
21648;DHT22;10985;54.182;7.890;2023-06-19T14:55:06;21.60;99.90
21648;DHT22;10985;54.182;7.890;2023-06-19T14:57:32;21.60;99.90
21648;DHT22;10985;54.182;7.890;2023-06-19T14:59:57;21.60;99.90
21648;DHT22;10985;54.182;7.890;2023-06-19T15:02:23;21.50;99.90
21648;DHT22;10985;54.182;7.890;2023-06-19T15:04:48;21.50;99.90
21648;DHT22;10985;54.182;7.890;2023-06-19T15:07:14;21.50;99.90
21648;DHT22;10985;54.182;7.890;2023-06-19T15:09:39;21.40;99.90
21648;DHT22;10985;54.182;7.890;2023-06-19T15:12:05;21.40;99.90
21648;DHT22;10985;54.182;7.890;2023-06-19T15:14:31;21.30;99.90
21648;DHT22;10985;54.182;7.890;2023-06-19T15:16:58;21.30;99.90
21648;DHT22;10985;54.182;7.890;2023-06-19T15:19:24;21.20;99.90
21648;DHT22;10985;54.182;7.890;2023-06-19T15:21:49;21.10;99.90
21648;DHT22;10985;54.182;7.890;2023-06-19T15:24:15;21.10;99.90
21648;DHT22;10985;54.182;7.890;2023-06-19T15:26:40;21.10;99.90